Prestonsburg, Kentucky
Current Conditions -  °F | °C
As of 8:35 PM on Thursday 18 Dec 2014 (Local Time) from KSJS Reporting Station
Overcast Overcast  
Wind Chill: 32°   Ceiling: 7500
Heat Index: 32°   Visibility: 10mi
Dew Point: 25°   Wind: 0mph
Humidity: 76%   Direction: NA
Pressure: 30.17"   Gusts: NA
Location:  37.67°N, 82.77°W
Report Text: KSJS 190135Z AUTO 00000KT 10SM OVC075 00/M04 A3017 RMK AO2 T00001037
Loading
Personal Weather Stations






























Interactive Weather Map New forecast layout! Learn more

10-Day Weather Forecast

Advertisements
Track Severe Weather on mobile